Time;durP1;ratioP1;P1;durP2;ratioP2;P2;SDS_P1;SDS_P2;PMS_P1;PMS_P2;Temp;Humidity;BMP_temperature;BMP_pressure;BME280_temperature;BME280_humidity;BME280_pressure;Samples;Min_cycle;Max_cycle;Signal;HPM_P1;HPM_P2
2022/07/02 00:01:17;;;;;;;16.57;13.83;;;11.70;99.90;;;;;;5094877;28;20599;-81
2022/07/02 00:03:50;;;;;;;18.93;14.67;;;11.70;99.90;;;;;;5095241;28;20200;-81
2022/07/02 00:06:19;;;;;;;18.33;13.90;;;11.60;99.90;;;;;;5095487;28;20754;-81
2022/07/02 00:08:46;;;;;;;18.20;14.07;;;11.60;99.90;;;;;;5095974;28;20201;-82
2022/07/02 00:11:15;;;;;;;17.67;13.37;;;11.50;99.90;;;;;;5094678;28;20250;-82
2022/07/02 00:13:42;;;;;;;16.70;12.83;;;11.50;99.90;;;;;;5094813;28;20200;-82
2022/07/02 00:16:10;;;;;;;22.23;14.80;;;11.50;99.90;;;;;;5094777;28;20201;-82
2022/07/02 00:18:37;;;;;;;17.30;13.47;;;11.60;99.90;;;;;;5094407;28;20254;-82
2022/07/02 00:21:04;;;;;;;20.33;16.77;;;11.50;99.90;;;;;;5094546;28;20724;-82
2022/07/02 00:23:30;;;;;;;19.17;14.37;;;11.50;99.90;;;;;;5094042;28;20200;-82
2022/07/02 00:26:02;;;;;;;20.43;14.17;;;11.50;99.90;;;;;;5094166;28;20682;-83
2022/07/02 00:28:34;;;;;;;19.07;14.30;;;11.40;99.90;;;;;;5094714;28;20291;-83
2022/07/02 00:31:00;;;;;;;16.80;12.83;;;11.40;99.90;;;;;;5094475;28;20248;-82
2022/07/02 00:33:30;;;;;;;17.97;13.40;;;11.30;99.90;;;;;;5094433;28;20196;-82
2022/07/02 00:35:58;;;;;;;16.57;12.30;;;11.30;99.90;;;;;;5094322;28;20196;-82
2022/07/02 00:38:25;;;;;;;14.60;12.63;;;11.30;99.90;;;;;;5094136;28;20223;-82
2022/07/02 00:40:52;;;;;;;19.83;14.67;;;11.20;99.90;;;;;;5094399;28;20208;-82
2022/07/02 00:43:19;;;;;;;17.53;13.87;;;11.30;99.90;;;;;;5094228;28;20204;-82
2022/07/02 00:45:48;;;;;;;17.90;13.33;;;11.30;99.90;;;;;;5094100;28;20227;-83
2022/07/02 00:48:15;;;;;;;19.73;13.40;;;11.20;99.90;;;;;;5094391;28;20219;-83
2022/07/02 00:50:41;;;;;;;16.80;12.87;;;11.10;99.90;;;;;;5094091;28;20196;-82
2022/07/02 00:53:08;;;;;;;18.17;13.30;;;11.00;99.90;;;;;;5093950;28;20269;-83
2022/07/02 00:55:35;;;;;;;16.73;12.40;;;10.90;99.90;;;;;;5094068;28;20208;-82
2022/07/02 00:58:02;;;;;;;17.90;12.83;;;10.90;99.90;;;;;;5093926;28;20200;-82
2022/07/02 01:00:29;;;;;;;19.20;12.90;;;10.90;99.90;;;;;;5093788;28;20555;-82
2022/07/02 01:02:57;;;;;;;20.90;14.00;;;10.90;99.90;;;;;;5093725;28;20291;-82
2022/07/02 01:05:24;;;;;;;18.33;13.10;;;10.90;99.90;;;;;;5093718;28;22099;-82
2022/07/02 01:10:16;;;;;;;17.57;13.20;;;10.90;99.90;;;;;;5094021;28;20274;-82
2022/07/02 01:10:44;;;;;;;18.40;13.50;;;10.90;99.90;;;;;;5093777;28;20309;-82
2022/07/02 01:13:12;;;;;;;17.97;12.73;;;10.80;99.90;;;;;;5093697;28;20686;-83
2022/07/02 01:15:39;;;;;;;16.07;13.63;;;10.70;99.90;;;;;;5093622;28;20233;-82
2022/07/02 01:18:07;;;;;;;20.63;13.70;;;10.70;99.90;;;;;;5093839;28;20286;-83
2022/07/02 01:20:34;;;;;;;23.43;13.43;;;10.70;99.90;;;;;;5093795;28;20208;-82
2022/07/02 01:23:03;;;;;;;16.10;12.37;;;10.70;99.90;;;;;;5093569;28;20200;-83
2022/07/02 01:25:30;;;;;;;16.97;12.60;;;10.70;99.90;;;;;;5093326;28;20196;-83
2022/07/02 01:27:57;;;;;;;21.57;12.90;;;10.60;99.90;;;;;;5093261;28;20610;-83
2022/07/02 01:30:23;;;;;;;17.07;12.83;;;10.70;99.90;;;;;;5093621;28;20208;-82
2022/07/02 01:32:50;;;;;;;14.80;11.77;;;10.50;99.90;;;;;;5093506;28;20246;-83
2022/07/02 01:35:17;;;;;;;17.83;13.57;;;10.40;99.90;;;;;;5092854;28;20196;-83
2022/07/02 01:37:43;;;;;;;16.97;13.33;;;10.40;99.90;;;;;;5093220;28;20273;-83
2022/07/02 01:40:11;;;;;;;19.13;12.37;;;10.50;99.90;;;;;;5093262;28;20196;-83
2022/07/02 01:42:38;;;;;;;16.73;12.43;;;10.60;99.90;;;;;;5093190;28;20196;-83
2022/07/02 01:45:07;;;;;;;16.10;11.67;;;10.50;99.90;;;;;;5093083;28;20203;-83
2022/07/02 01:47:33;;;;;;;16.33;12.80;;;10.30;99.90;;;;;;5092930;28;20220;-83
2022/07/02 01:50:00;;;;;;;17.60;12.57;;;10.20;99.90;;;;;;5093180;28;20200;-83
2022/07/02 01:52:27;;;;;;;15.17;12.27;;;10.20;99.90;;;;;;5093071;28;20208;-83
2022/07/02 01:54:53;;;;;;;19.40;12.10;;;10.10;99.90;;;;;;5093026;28;20196;-83
2022/07/02 01:57:21;;;;;;;17.60;12.30;;;10.10;99.90;;;;;;5092950;28;20241;-82
2022/07/02 01:59:48;;;;;;;18.70;12.77;;;10.20;99.90;;;;;;5092859;28;20253;-83
2022/07/02 02:02:15;;;;;;;15.93;12.37;;;10.20;99.90;;;;;;5093057;28;20208;-83
2022/07/02 02:04:41;;;;;;;14.17;11.23;;;10.30;99.90;;;;;;5093020;28;20261;-83
2022/07/02 02:07:08;;;;;;;17.57;11.60;;;10.20;99.90;;;;;;5092963;28;20224;-83
2022/07/02 02:09:35;;;;;;;16.60;12.07;;;10.10;99.90;;;;;;5093003;28;20222;-84
2022/07/02 02:12:02;;;;;;;14.23;10.87;;;10.10;99.90;;;;;;5092824;28;20196;-82
2022/07/02 02:14:30;;;;;;;14.60;11.10;;;10.20;99.90;;;;;;5093276;28;20196;-83
2022/07/02 02:16:57;;;;;;;14.57;10.90;;;10.20;99.90;;;;;;5092980;28;20223;-83
2022/07/02 02:19:23;;;;;;;15.47;11.83;;;10.20;99.90;;;;;;5092700;28;20232;-83
2022/07/02 02:21:50;;;;;;;20.20;13.10;;;10.20;99.90;;;;;;5092880;28;20279;-83
2022/07/02 02:24:17;;;;;;;19.33;13.33;;;10.20;99.90;;;;;;5092812;28;20250;-83
2022/07/02 02:26:43;;;;;;;18.80;12.93;;;10.10;99.90;;;;;;5092503;28;20273;-83
2022/07/02 02:29:10;;;;;;;16.97;13.67;;;10.10;99.90;;;;;;5092869;28;20223;-83
2022/07/02 02:31:38;;;;;;;18.13;12.40;;;10.10;99.90;;;;;;5092588;28;20651;-82
2022/07/02 02:34:05;;;;;;;15.60;11.53;;;10.10;99.90;;;;;;5092647;28;20569;-83
2022/07/02 02:36:31;;;;;;;13.90;11.20;;;10.00;99.90;;;;;;5092488;28;20200;-83
2022/07/02 02:38:58;;;;;;;15.53;11.17;;;9.90;99.90;;;;;;5092455;28;20201;-83
2022/07/02 02:41:25;;;;;;;15.47;10.57;;;10.10;99.90;;;;;;5092457;28;20204;-83
2022/07/02 02:43:52;;;;;;;16.17;12.10;;;10.10;99.90;;;;;;5092814;28;20257;-83
2022/07/02 02:46:18;;;;;;;16.27;11.80;;;10.10;99.90;;;;;;5092638;28;20224;-83
2022/07/02 02:48:46;;;;;;;14.43;11.07;;;10.10;99.90;;;;;;5096543;28;20196;-83
2022/07/02 02:51:15;;;;;;;13.43;10.73;;;9.90;99.90;;;;;;5096580;28;20205;-83
2022/07/02 02:53:42;;;;;;;15.57;10.30;;;9.90;99.90;;;;;;5096380;28;20250;-83
2022/07/02 02:56:09;;;;;;;13.83;10.67;;;9.80;99.90;;;;;;5096260;28;20663;-83
2022/07/02 02:58:36;;;;;;;15.27;10.30;;;9.70;99.90;;;;;;5096349;28;20196;-83
2022/07/02 03:01:03;;;;;;;15.33;10.03;;;9.70;99.90;;;;;;5096202;28;20192;-83
2022/07/02 03:03:30;;;;;;;14.27;10.30;;;9.80;99.90;;;;;;5096197;28;20231;-83
2022/07/02 03:05:58;;;;;;;14.23;10.33;;;9.70;99.90;;;;;;5096042;28;20196;-83
2022/07/02 03:08:24;;;;;;;15.13;10.60;;;9.70;99.90;;;;;;5096013;28;20204;-84
2022/07/02 03:10:51;;;;;;;13.43;9.83;;;9.70;99.90;;;;;;5096138;28;20277;-83
2022/07/02 03:13:18;;;;;;;13.33;10.07;;;9.70;99.90;;;;;;5096103;28;20192;-83
2022/07/02 03:15:44;;;;;;;12.60;8.97;;;9.60;99.90;;;;;;5095890;28;20643;-83
2022/07/02 03:18:11;;;;;;;11.03;9.53;;;9.50;99.90;;;;;;5095857;28;20228;-83
2022/07/02 03:20:38;;;;;;;13.50;10.20;;;9.50;99.90;;;;;;5095717;28;20686;-78
2022/07/02 03:23:06;;;;;;;14.03;9.70;;;9.60;99.90;;;;;;5095604;28;20265;-78
2022/07/02 03:25:33;;;;;;;13.80;10.07;;;9.60;99.90;;;;;;5095706;28;20288;-77
2022/07/02 03:27:59;;;;;;;14.20;10.57;;;9.50;99.90;;;;;;5095842;28;20227;-78
2022/07/02 03:30:26;;;;;;;13.90;11.17;;;9.60;99.90;;;;;;5095701;28;20226;-77
2022/07/02 03:32:53;;;;;;;25.47;15.10;;;9.80;99.90;;;;;;5095570;28;20329;-77
2022/07/02 03:35:20;;;;;;;35.60;19.93;;;9.80;99.90;;;;;;5095394;28;20192;-77
2022/07/02 03:37:46;;;;;;;34.80;17.80;;;9.70;99.90;;;;;;5095536;28;20867;-77
2022/07/02 03:40:14;;;;;;;19.27;12.20;;;9.70;99.90;;;;;;5095483;28;20196;-77
2022/07/02 03:42:41;;;;;;;17.83;11.50;;;9.80;99.90;;;;;;5095355;28;20200;-77
2022/07/02 03:45:08;;;;;;;15.17;11.60;;;9.80;99.90;;;;;;5095339;28;20197;-76
2022/07/02 03:47:35;;;;;;;14.13;10.97;;;9.80;99.90;;;;;;5095152;28;20241;-76
2022/07/02 03:50:01;;;;;;;14.23;11.83;;;9.70;99.90;;;;;;5095120;28;20242;-77
2022/07/02 03:52:28;;;;;;;15.57;11.83;;;9.80;99.90;;;;;;5095288;28;20249;-77
2022/07/02 03:54:55;;;;;;;18.20;13.00;;;9.80;99.90;;;;;;5095135;28;20196;-77
2022/07/02 03:57:23;;;;;;;15.10;11.83;;;9.80;99.90;;;;;;5094963;28;20536;-77
2022/07/02 03:59:49;;;;;;;20.13;12.17;;;9.80;99.90;;;;;;5094125;28;20200;-77
2022/07/02 04:02:16;;;;;;;15.20;11.50;;;9.80;99.90;;;;;;5094934;28;20218;-77
2022/07/02 04:04:43;;;;;;;16.67;11.93;;;9.90;99.90;;;;;;5094746;28;20203;-77
2022/07/02 04:07:09;;;;;;;18.40;12.73;;;9.90;99.90;;;;;;5094870;28;20232;-77
2022/07/02 04:09:36;;;;;;;17.10;12.60;;;9.90;99.90;;;;;;5094713;28;20602;-77
2022/07/02 04:12:02;;;;;;;17.37;13.33;;;10.00;99.90;;;;;;5094860;28;20196;-77
2022/07/02 04:14:31;;;;;;;17.30;12.83;;;10.00;99.90;;;;;;5094618;28;20208;-77
2022/07/02 04:16:57;;;;;;;17.73;12.67;;;10.10;99.90;;;;;;5094641;28;20202;-77
2022/07/02 04:19:24;;;;;;;19.33;13.40;;;10.20;99.90;;;;;;5094323;28;20241;-77
2022/07/02 04:21:50;;;;;;;16.40;12.93;;;10.20;99.90;;;;;;5094544;28;20655;-77
2022/07/02 04:24:17;;;;;;;17.63;12.17;;;10.20;99.90;;;;;;5094687;28;20200;-77
2022/07/02 04:26:44;;;;;;;16.90;13.30;;;10.30;99.90;;;;;;5094369;28;20220;-77
2022/07/02 04:29:10;;;;;;;18.77;12.40;;;10.30;99.90;;;;;;5094710;28;20254;-76
2022/07/02 04:31:38;;;;;;;18.10;12.40;;;10.40;99.90;;;;;;5094230;28;20196;-76
2022/07/02 04:34:05;;;;;;;16.30;12.27;;;10.50;99.90;;;;;;5094182;28;20748;-76
2022/07/02 04:36:32;;;;;;;14.97;11.97;;;10.60;99.90;;;;;;5094515;28;20250;-77
2022/07/02 04:39:01;;;;;;;15.40;12.87;;;10.70;99.90;;;;;;5094261;28;20192;-77
2022/07/02 04:41:28;;;;;;;17.13;13.13;;;10.80;99.90;;;;;;5094073;28;20192;-77
2022/07/02 04:43:55;;;;;;;18.53;14.37;;;10.90;99.90;;;;;;5093964;28;20204;-76
2022/07/02 04:46:21;;;;;;;17.67;13.90;;;11.00;99.90;;;;;;5093813;28;20192;-77
2022/07/02 04:48:49;;;;;;;21.07;15.03;;;11.00;99.90;;;;;;5093934;28;20736;-76
2022/07/02 04:51:17;;;;;;;24.87;15.90;;;11.10;99.90;;;;;;5094015;28;20196;-77
2022/07/02 04:53:43;;;;;;;21.43;15.57;;;11.20;99.90;;;;;;5093921;28;20601;-77
2022/07/02 04:56:10;;;;;;;21.43;14.63;;;11.30;99.90;;;;;;5093721;28;20200;-77
2022/07/02 04:58:37;;;;;;;19.17;14.30;;;11.40;99.90;;;;;;5093640;28;20196;-76
2022/07/02 05:01:04;;;;;;;22.53;15.40;;;11.50;99.90;;;;;;5093682;28;20200;-77
2022/07/02 05:03:31;;;;;;;21.13;14.63;;;11.50;99.90;;;;;;5093833;28;20230;-76
2022/07/02 05:05:59;;;;;;;18.83;14.43;;;11.70;99.90;;;;;;5093802;28;20196;-76
2022/07/02 05:08:27;;;;;;;18.53;13.30;;;11.70;99.90;;;;;;5093669;28;20269;-76
2022/07/02 05:10:53;;;;;;;19.73;14.47;;;11.80;99.90;;;;;;5093425;28;20193;-78
2022/07/02 05:13:21;;;;;;;17.73;12.97;;;11.90;99.90;;;;;;5093452;28;20196;-76
2022/07/02 05:15:48;;;;;;;18.60;13.93;;;12.00;99.90;;;;;;5093615;28;20203;-77
2022/07/02 05:18:14;;;;;;;19.37;13.43;;;12.10;99.90;;;;;;5093265;28;20289;-77
2022/07/02 05:20:41;;;;;;;18.63;14.20;;;12.20;99.90;;;;;;5093545;28;20196;-77
2022/07/02 05:23:10;;;;;;;16.07;12.30;;;12.30;99.90;;;;;;5093274;28;20192;-77
2022/07/02 05:25:36;;;;;;;17.37;13.10;;;12.40;99.90;;;;;;5093175;28;20720;-77
2022/07/02 05:28:04;;;;;;;16.67;13.07;;;12.50;99.90;;;;;;5093004;28;20644;-78
2022/07/02 05:30:30;;;;;;;14.30;12.10;;;12.60;99.90;;;;;;5093479;28;20242;-77
2022/07/02 05:32:57;;;;;;;14.10;12.70;;;12.70;99.90;;;;;;5093183;28;20688;-77
2022/07/02 05:35:23;;;;;;;13.57;10.83;;;12.80;99.90;;;;;;5093827;28;20204;-77
2022/07/02 05:37:50;;;;;;;15.33;11.47;;;12.90;99.90;;;;;;5093066;28;20197;-77
2022/07/02 05:40:18;;;;;;;12.87;10.80;;;12.90;99.90;;;;;;5093168;28;20200;-78
2022/07/02 05:42:45;;;;;;;12.80;9.80;;;13.00;99.90;;;;;;5093259;28;20250;-78
2022/07/02 05:45:12;;;;;;;11.20;10.10;;;13.20;99.90;;;;;;5093083;28;20196;-78
2022/07/02 05:47:38;;;;;;;10.70;9.63;;;13.30;99.90;;;;;;5092891;28;20636;-78
2022/07/02 05:50:06;;;;;;;12.23;10.93;;;13.40;99.90;;;;;;5093132;28;20410;-78
2022/07/02 05:52:33;;;;;;;12.37;8.80;;;13.50;99.90;;;;;;5092952;28;20201;-78
2022/07/02 05:54:59;;;;;;;11.70;9.23;;;13.60;99.90;;;;;;5092770;28;20249;-78
2022/07/02 05:57:27;;;;;;;11.97;9.20;;;13.70;99.90;;;;;;5093015;28;20289;-78
2022/07/02 05:59:55;;;;;;;10.43;8.77;;;13.80;99.90;;;;;;5092970;28;20200;-77
2022/07/02 06:02:22;;;;;;;9.80;8.80;;;13.80;99.90;;;;;;5092574;28;20669;-77
2022/07/02 06:04:48;;;;;;;9.27;8.43;;;13.90;99.90;;;;;;5092695;28;20204;-78
2022/07/02 06:09:59;;;;;;;8.90;7.47;;;14.10;99.90;;;;;;5092786;28;20203;-78
2022/07/02 06:12:27;;;;;;;7.43;6.83;;;14.20;99.90;;;;;;5092697;28;20200;-78
2022/07/02 06:14:54;;;;;;;7.53;6.60;;;14.30;99.90;;;;;;5092720;28;20191;-78
2022/07/02 06:17:21;;;;;;;6.80;6.10;;;14.40;99.90;;;;;;5092540;28;20601;-78
2022/07/02 06:19:48;;;;;;;7.27;5.63;;;14.50;99.90;;;;;;5092476;28;20232;-78
2022/07/02 06:22:15;;;;;;;7.10;6.50;;;14.50;99.90;;;;;;5093910;28;20292;-78
2022/07/02 06:24:42;;;;;;;6.73;6.10;;;14.70;99.90;;;;;;5096779;28;20197;-78
2022/07/02 06:27:08;;;;;;;7.43;5.93;;;14.80;99.90;;;;;;5096932;28;20216;-78
2022/07/02 06:29:36;;;;;;;5.97;5.10;;;14.90;99.90;;;;;;5096526;28;20200;-78
2022/07/02 06:32:04;;;;;;;6.27;5.67;;;15.00;99.90;;;;;;5096597;28;20196;-79
2022/07/02 06:34:30;;;;;;;6.53;5.20;;;15.00;99.90;;;;;;5096370;28;20287;-78
2022/07/02 06:36:57;;;;;;;6.37;4.50;;;15.10;99.90;;;;;;5096278;28;20192;-79
2022/07/02 06:39:23;;;;;;;4.87;4.33;;;15.20;99.90;;;;;;5096699;28;20269;-78
2022/07/02 06:44:37;;;;;;;4.60;4.20;;;15.40;99.90;;;;;;5096295;28;20203;-79
2022/07/02 06:47:04;;;;;;;3.80;3.50;;;15.50;99.90;;;;;;5096004;28;20196;-79
2022/07/02 06:49:30;;;;;;;4.03;3.67;;;15.60;99.90;;;;;;5095963;28;20659;-78
2022/07/02 06:51:57;;;;;;;4.30;3.40;;;15.70;99.90;;;;;;5096276;28;20540;-79
2022/07/02 06:54:24;;;;;;;4.77;4.20;;;15.80;99.90;;;;;;5096202;28;20242;-79
2022/07/02 06:56:50;;;;;;;3.97;3.55;;;15.90;99.90;;;;;;5095977;28;20197;-79
2022/07/02 06:59:17;;;;;;;4.37;3.57;;;15.90;99.90;;;;;;5095863;28;20200;-79
2022/07/02 07:01:45;;;;;;;5.07;2.95;;;16.00;99.90;;;;;;5095892;28;20245;-79
2022/07/02 07:04:12;;;;;;;3.78;2.90;;;16.10;99.90;;;;;;5095939;28;20241;-79
2022/07/02 07:06:38;;;;;;;3.70;3.22;;;16.20;99.90;;;;;;5096101;28;20197;-79
2022/07/02 07:09:05;;;;;;;3.25;2.55;;;16.30;99.90;;;;;;5095804;28;20235;-79
2022/07/02 07:11:31;;;;;;;3.05;2.50;;;16.40;99.90;;;;;;5095636;28;20196;-78
2022/07/02 07:13:58;;;;;;;2.75;2.50;;;16.50;99.90;;;;;;5095611;28;20197;-78
2022/07/02 07:16:25;;;;;;;6.57;2.45;;;16.60;99.90;;;;;;5095547;28;20246;-79
2022/07/02 07:18:54;;;;;;;2.97;2.78;;;16.60;99.90;;;;;;5095350;28;20232;-78
2022/07/02 07:21:20;;;;;;;3.03;2.75;;;16.70;99.90;;;;;;5095644;28;20626;-79
2022/07/02 07:23:47;;;;;;;2.95;2.70;;;16.80;99.90;;;;;;5095505;28;20226;-79
2022/07/02 07:26:14;;;;;;;5.68;2.67;;;16.80;99.90;;;;;;5095468;28;20196;-79
2022/07/02 07:28:40;;;;;;;3.83;2.72;;;16.90;99.90;;;;;;5095210;28;20285;-79
2022/07/02 07:31:07;;;;;;;2.97;2.67;;;16.90;99.90;;;;;;5095593;28;20242;-78
2022/07/02 07:33:34;;;;;;;3.70;2.90;;;17.00;99.90;;;;;;5093948;28;20215;-78
2022/07/02 07:36:02;;;;;;;2.97;2.75;;;17.10;99.90;;;;;;5095310;28;20250;-79
2022/07/02 07:38:29;;;;;;;4.18;3.10;;;17.10;99.90;;;;;;5095358;28;20200;-78
2022/07/02 07:40:56;;;;;;;6.00;2.88;;;17.20;99.90;;;;;;5095236;28;20203;-78
2022/07/02 07:43:22;;;;;;;4.53;2.60;;;17.30;99.90;;;;;;5094934;28;20196;-80
2022/07/02 07:45:49;;;;;;;2.90;2.70;;;17.40;99.90;;;;;;5095311;28;20278;-78
2022/07/02 07:48:15;;;;;;;3.20;2.90;;;17.50;99.90;;;;;;5095181;28;20285;-79
2022/07/02 07:50:42;;;;;;;3.22;2.92;;;17.60;99.90;;;;;;5095030;28;20602;-79
2022/07/02 07:53:10;;;;;;;3.08;2.75;;;17.80;99.90;;;;;;5095061;28;20651;-79
2022/07/02 07:55:37;;;;;;;3.60;3.30;;;17.90;99.90;;;;;;5094969;28;20713;-79
2022/07/02 07:58:04;;;;;;;2.80;2.60;;;18.10;99.90;;;;;;5095111;28;20204;-80
2022/07/02 08:00:30;;;;;;;3.53;2.53;;;18.20;99.90;;;;;;5101323;28;20200;-80
2022/07/02 08:02:57;;;;;;;4.32;2.92;;;18.40;99.90;;;;;;5101275;28;20208;-80
2022/07/02 08:05:24;;;;;;;5.80;2.70;;;18.60;99.90;;;;;;5095069;28;20235;-80
2022/07/02 08:07:51;;;;;;;2.97;2.70;;;18.80;99.90;;;;;;5094661;28;20220;-80
2022/07/02 08:10:19;;;;;;;5.78;2.97;;;19.00;99.90;;;;;;5094569;28;20257;-80
2022/07/02 08:12:46;;;;;;;2.78;2.58;;;19.10;99.90;;;;;;5094619;28;20204;-81
2022/07/02 08:15:12;;;;;;;3.17;2.67;;;19.20;99.90;;;;;;5094739;28;20261;-80
2022/07/02 08:17:39;;;;;;;2.80;2.60;;;19.30;99.90;;;;;;5094457;28;20204;-80
2022/07/02 08:20:07;;;;;;;2.35;2.15;;;19.30;99.90;;;;;;5094693;28;20246;-80
2022/07/02 08:22:35;;;;;;;3.47;2.83;;;19.70;99.90;;;;;;5094398;28;20197;-81
2022/07/02 08:25:02;;;;;;;4.90;1.88;;;19.90;99.90;;;;;;5094360;28;20196;-79
2022/07/02 08:27:30;;;;;;;2.33;1.80;;;20.10;99.90;;;;;;5094396;28;20227;-79
2022/07/02 08:29:57;;;;;;;2.47;2.10;;;20.10;99.90;;;;;;5094314;28;20200;-80
2022/07/02 08:32:24;;;;;;;2.88;1.60;;;20.30;99.90;;;;;;5094215;28;20200;-80
2022/07/02 08:34:51;;;;;;;2.72;1.52;;;20.50;99.90;;;;;;5093973;28;20204;-80
2022/07/02 08:37:17;;;;;;;1.92;1.67;;;20.50;99.90;;;;;;5094183;28;20204;-79
2022/07/02 08:39:44;;;;;;;2.63;1.58;;;20.70;99.90;;;;;;5093982;28;20563;-80
2022/07/02 08:42:11;;;;;;;1.75;1.50;;;20.80;99.90;;;;;;5094175;28;20238;-79
2022/07/02 08:44:41;;;;;;;1.50;1.40;;;20.90;99.90;;;;;;5093594;28;20324;-80
2022/07/02 08:47:09;;;;;;;1.58;1.38;;;20.80;99.90;;;;;;5094264;28;20196;-80
2022/07/02 08:49:39;;;;;;;2.00;1.70;;;20.90;99.90;;;;;;5093843;28;20252;-80
2022/07/02 08:52:07;;;;;;;1.80;1.60;;;20.90;99.90;;;;;;5093677;28;20204;-80
2022/07/02 08:54:35;;;;;;;1.70;1.60;;;21.00;99.90;;;;;;5093640;28;20571;-80
2022/07/02 08:57:05;;;;;;;2.50;1.70;;;21.10;99.90;;;;;;5093652;28;20551;-80
2022/07/02 08:59:32;;;;;;;2.45;1.80;;;21.20;99.90;;;;;;5093653;28;20200;-80
2022/07/02 09:02:01;;;;;;;1.60;1.50;;;21.40;99.90;;;;;;5093492;28;20713;-80
2022/07/02 09:04:28;;;;;;;1.67;1.30;;;21.60;99.90;;;;;;5093567;28;20245;-79
2022/07/02 09:06:58;;;;;;;3.78;1.50;;;21.40;99.90;;;;;;5093592;28;20261;-80
2022/07/02 09:09:26;;;;;;;1.60;1.50;;;21.50;99.90;;;;;;5093518;28;20273;-80
2022/07/02 09:11:53;;;;;;;3.20;1.60;;;21.40;99.90;;;;;;5093581;28;20265;-80
2022/07/02 09:14:20;;;;;;;1.55;1.45;;;21.60;99.90;;;;;;5093561;28;20200;-79
2022/07/02 09:16:47;;;;;;;4.72;1.55;;;21.80;99.90;;;;;;5093553;28;20261;-80
2022/07/02 09:19:16;;;;;;;1.52;1.40;;;21.70;99.90;;;;;;5093102;28;20815;-79
2022/07/02 09:21:43;;;;;;;2.40;1.40;;;21.80;99.90;;;;;;5093499;28;20246;-79
2022/07/02 09:24:11;;;;;;;1.65;1.55;;;22.10;99.90;;;;;;5093405;28;20197;-80
2022/07/02 09:26:37;;;;;;;1.30;1.20;;;22.50;99.50;;;;;;5093306;28;20269;-79
2022/07/02 09:29:04;;;;;;;2.03;1.50;;;22.80;97.60;;;;;;5093623;28;20216;-80
2022/07/02 09:31:31;;;;;;;1.60;1.27;;;23.00;96.60;;;;;;5093155;28;20287;-78
2022/07/02 09:33:59;;;;;;;2.65;1.33;;;23.30;93.10;;;;;;5093040;28;20586;-80
2022/07/02 09:36:27;;;;;;;2.92;1.42;;;23.20;87.90;;;;;;5093183;28;20226;-80
2022/07/02 09:38:54;;;;;;;3.38;1.83;;;23.30;88.30;;;;;;5093039;28;20200;-79
2022/07/02 09:41:23;;;;;;;3.63;1.40;;;23.50;88.10;;;;;;5093082;28;20243;-80
2022/07/02 09:43:53;;;;;;;1.30;1.20;;;23.00;89.20;;;;;;5092829;28;20658;-81
2022/07/02 09:46:21;;;;;;;1.48;1.30;;;23.00;90.10;;;;;;5092871;28;20200;-79
2022/07/02 09:48:49;;;;;;;1.65;1.38;;;22.80;91.10;;;;;;5092997;28;20267;-80
2022/07/02 09:51:16;;;;;;;2.47;1.58;;;23.40;93.10;;;;;;5093003;28;20200;-80
2022/07/02 09:53:55;;;;;;;1.73;1.63;;;23.90;93.10;;;;;;5092947;28;20201;-80
2022/07/02 09:56:23;;;;;;;2.22;1.85;;;24.20;91.70;;;;;;5092164;28;20488;-80
2022/07/02 09:58:51;;;;;;;2.60;1.40;;;24.30;91.80;;;;;;5092714;28;20708;-80
2022/07/02 10:01:21;;;;;;;1.65;1.30;;;24.80;92.00;;;;;;5092968;28;20199;-79
2022/07/02 10:03:49;;;;;;;2.50;1.50;;;25.00;88.50;;;;;;5093023;28;20266;-79
2022/07/02 10:06:16;;;;;;;4.32;1.42;;;25.30;88.10;;;;;;5097267;28;20192;-80
2022/07/02 10:08:43;;;;;;;2.00;1.10;;;25.80;85.80;;;;;;5107230;28;20245;-79
2022/07/02 10:11:12;;;;;;;4.78;1.40;;;26.10;77.30;;;;;;5093090;28;20224;-79
2022/07/02 10:13:40;;;;;;;1.98;1.40;;;26.30;71.90;;;;;;5093258;28;20552;-81
2022/07/02 10:16:13;;;;;;;3.15;1.30;;;26.50;72.10;;;;;;5092496;28;20680;-79
2022/07/02 10:18:42;;;;;;;3.17;1.45;;;26.90;69.30;;;;;;5092815;28;20257;-80
2022/07/02 10:21:11;;;;;;;3.28;1.50;;;27.40;68.10;;;;;;5092808;28;20239;-81
2022/07/02 10:23:39;;;;;;;2.20;1.63;;;27.20;67.90;;;;;;5092440;28;20220;-80
2022/07/02 10:26:05;;;;;;;1.92;1.50;;;27.30;64.00;;;;;;5092459;28;20192;-81
2022/07/02 10:28:34;;;;;;;1.30;1.20;;;27.70;64.30;;;;;;5092582;28;20241;-81
2022/07/02 10:31:01;;;;;;;2.35;1.58;;;27.90;61.60;;;;;;5092502;28;20208;-79
2022/07/02 10:33:33;;;;;;;2.13;1.40;;;28.10;59.70;;;;;;5092397;28;20644;-79
2022/07/02 10:36:02;;;;;;;3.97;1.40;;;28.10;57.50;;;;;;5092453;28;20659;-79
2022/07/02 10:38:30;;;;;;;3.03;1.23;;;28.70;56.60;;;;;;5092377;28;20658;-80
2022/07/02 10:40:57;;;;;;;2.67;1.20;;;29.00;53.50;;;;;;5092557;28;20231;-79
2022/07/02 10:43:26;;;;;;;2.58;1.10;;;29.10;51.20;;;;;;5092487;28;20196;-79
2022/07/02 10:46:07;;;;;;;1.10;1.00;;;29.10;48.00;;;;;;5092435;28;20196;-80
2022/07/02 10:48:35;;;;;;;1.67;1.15;;;29.50;47.50;;;;;;5092327;28;20270;-80
2022/07/02 10:51:03;;;;;;;1.50;1.20;;;29.60;44.40;;;;;;5092191;28;20607;-80
2022/07/02 10:53:30;;;;;;;4.55;1.20;;;29.90;40.60;;;;;;5092208;28;20681;-79
2022/07/02 10:56:02;;;;;;;0.90;0.90;;;30.10;39.30;;;;;;5092392;28;20221;-79
2022/07/02 10:58:30;;;;;;;1.33;1.05;;;30.60;37.90;;;;;;5092337;28;20204;-79
2022/07/02 11:01:08;;;;;;;1.33;1.17;;;30.70;36.40;;;;;;5092216;28;20200;-80
2022/07/02 11:03:36;;;;;;;1.30;1.10;;;31.30;35.00;;;;;;5092073;28;20196;-81
2022/07/02 11:06:05;;;;;;;1.48;1.20;;;31.90;33.20;;;;;;5092293;28;20203;-81
2022/07/02 11:08:52;;;;;;;1.70;1.10;;;31.80;31.70;;;;;;5093787;28;20196;-81
2022/07/02 11:11:22;;;;;;;1.58;1.17;;;32.20;29.10;;;;;;5095829;28;20207;-81
2022/07/02 11:13:50;;;;;;;3.83;1.30;;;32.00;28.00;;;;;;5095795;28;20223;-81
2022/07/02 11:16:23;;;;;;;1.92;1.10;;;32.50;28.30;;;;;;5095443;28;20651;-81
2022/07/02 11:18:51;;;;;;;1.65;1.30;;;32.90;26.40;;;;;;5095409;28;20272;-80
2022/07/02 11:21:20;;;;;;;1.13;1.02;;;32.90;26.10;;;;;;5095533;28;20671;-80
2022/07/02 11:23:47;;;;;;;1.50;1.10;;;33.30;25.40;;;;;;5095604;28;20192;-80
2022/07/02 11:26:19;;;;;;;1.77;1.10;;;32.40;25.00;;;;;;5095514;28;20196;-80
2022/07/02 11:28:46;;;;;;;1.63;1.10;;;32.60;24.60;;;;;;5095640;28;20272;-81
2022/07/02 11:31:13;;;;;;;1.20;1.10;;;32.40;24.70;;;;;;5095583;28;20554;-81
2022/07/02 11:33:45;;;;;;;1.95;1.20;;;32.30;25.20;;;;;;5095377;28;20260;-80
2022/07/02 11:36:13;;;;;;;2.10;1.17;;;32.80;24.30;;;;;;5095390;28;20196;-80
2022/07/02 11:38:41;;;;;;;2.72;1.05;;;32.40;24.20;;;;;;5095207;28;20198;-80
2022/07/02 11:41:19;;;;;;;1.95;1.20;;;32.80;25.30;;;;;;5095435;28;20260;-81
2022/07/02 11:43:46;;;;;;;1.30;1.20;;;33.40;24.90;;;;;;5095380;28;20199;-80
2022/07/02 11:46:17;;;;;;;2.95;1.10;;;32.80;23.10;;;;;;5095256;28;20196;-80
2022/07/02 11:48:44;;;;;;;1.50;1.15;;;33.20;23.20;;;;;;5095135;28;20199;-80
2022/07/02 11:51:10;;;;;;;2.40;1.27;;;33.50;23.20;;;;;;5095155;28;20241;-80
2022/07/02 11:53:38;;;;;;;2.92;1.20;;;33.90;24.30;;;;;;5094871;28;20196;-81
2022/07/02 11:56:06;;;;;;;1.55;1.30;;;34.10;23.20;;;;;;5094844;28;20716;-80
2022/07/02 11:58:41;;;;;;;1.85;1.10;;;34.40;23.00;;;;;;5095028;28;20200;-81
2022/07/02 12:01:27;;;;;;;3.53;1.10;;;34.50;23.00;;;;;;5094920;28;20604;-81
2022/07/02 12:03:56;;;;;;;2.33;1.38;;;34.90;22.70;;;;;;5094719;28;20260;-81
2022/07/02 12:06:25;;;;;;;2.42;1.30;;;34.90;22.00;;;;;;5094733;28;20687;-81
2022/07/02 12:08:54;;;;;;;1.48;1.20;;;34.90;21.20;;;;;;5094845;28;20245;-81
2022/07/02 12:11:22;;;;;;;2.85;1.35;;;34.70;21.00;;;;;;5094795;28;20226;-81
2022/07/02 12:13:50;;;;;;;1.30;1.20;;;35.20;21.50;;;;;;5096144;28;20253;-81
2022/07/02 12:16:19;;;;;;;1.70;1.30;;;35.10;21.50;;;;;;5094514;28;20192;-80
2022/07/02 12:18:57;;;;;;;4.25;1.27;;;34.80;20.90;;;;;;5094308;28;20702;-80
2022/07/02 12:21:32;;;;;;;1.23;1.08;;;34.20;21.10;;;;;;5094055;28;20199;-80
2022/07/02 12:24:00;;;;;;;1.42;1.10;;;33.90;21.90;;;;;;5094540;28;20775;-81
2022/07/02 12:26:29;;;;;;;1.67;1.25;;;34.70;21.00;;;;;;5094328;28;20268;-81
2022/07/02 12:31:50;;;;;;;1.92;1.45;;;34.70;21.00;;;;;;5094247;28;20496;-81
2022/07/02 12:34:17;;;;;;;2.53;1.25;;;35.50;20.40;;;;;;5094241;28;20206;-81
2022/07/02 12:36:46;;;;;;;2.08;1.40;;;35.70;19.90;;;;;;5094121;28;20200;-81
2022/07/02 12:39:14;;;;;;;1.30;1.20;;;35.80;19.50;;;;;;5094216;28;20203;-81
2022/07/02 12:41:41;;;;;;;2.72;1.27;;;35.90;19.40;;;;;;5094168;28;20195;-81
2022/07/02 12:44:16;;;;;;;1.52;1.10;;;35.10;19.20;;;;;;5094108;28;20200;-80
2022/07/02 12:46:44;;;;;;;1.73;1.40;;;35.50;18.80;;;;;;5094097;28;20286;-80
2022/07/02 12:49:15;;;;;;;3.17;1.55;;;35.70;18.70;;;;;;5093727;28;20280;-80